Terminal Aerodrome Forecast
Issued by NWS

Home | Current Version | Previous Version | Text Only | Print | Product List | Glossary On
Versions: 1 2 3 4 5 6 7 8 9 10 11 12 13 14 15 16
000
FTUS45 KABQ 280500
TAFGUP
TAF
KGUP 280535Z 2806/2906 VRB03KT P6SM SKC
     FM281800 32010G16KT P6SM FEW060
     FM290100 VRB03KT P6SM SKC=

USA.gov is the U.S. government's official web portal to all federal, state and local government web resources and services.